Time;durP1;ratioP1;P1;durP2;ratioP2;P2;SDS_P1;SDS_P2;PMS_P1;PMS_P2;Temp;Humidity;BMP_temperature;BMP_pressure;BME280_temperature;BME280_humidity;BME280_pressure;Samples;Min_cycle;Max_cycle;Signal;HPM_P1;HPM_P2
2022/01/12 00:00:03;;;;;;;;;;;;;;;;;;2098405;28;19920;-44
2022/01/12 00:01:05;;;;;;;;;;;;;;;;;;2098569;28;19924;-44
2022/01/12 00:02:05;;;;;;;;;;;;;;;;;;2105922;28;19981;-44
2022/01/12 00:03:07;;;;;;;;;;;;;;;;;;2115320;28;19923;-44
2022/01/12 00:04:08;;;;;;;;;;;;;;;;;;2112304;28;20308;-44
2022/01/12 00:05:09;;;;;;;;;;;;;;;;;;2109219;28;19927;-44
2022/01/12 00:06:10;;;;;;;;;;;;;;;;;;2115285;28;19926;-44
2022/01/12 00:07:10;;;;;;;;;;;;;;;;;;2109988;28;19921;-43
2022/01/12 00:08:11;;;;;;;;;;;;;;;;;;2106810;28;19924;-44
2022/01/12 00:09:12;;;;;;;;;;;;;;;;;;2106740;28;19924;-44
2022/01/12 00:10:13;;;;;;;;;;;;;;;;;;2105782;28;19980;-43
2022/01/12 00:11:14;;;;;;;;;;;;;;;;;;2114970;28;19959;-43
2022/01/12 00:12:15;;;;;;;;;;;;;;;;;;2115202;28;19968;-44
2022/01/12 00:13:16;;;;;;;;;;;;;;;;;;2105328;28;19963;-43
2022/01/12 00:14:16;;;;;;;;;;;;;;;;;;2103022;28;19920;-43
2022/01/12 00:15:17;;;;;;;;;;;;;;;;;;2106647;28;19920;-43
2022/01/12 00:16:18;;;;;;;;;;;;;;;;;;2105107;28;19924;-44
2022/01/12 00:17:19;;;;;;;;;;;;;;;;;;2106381;28;20282;-43
2022/01/12 00:18:20;;;;;;;;;;;;;;;;;;2105882;28;20377;-43
2022/01/12 00:19:22;;;;;;;;;;;;;;;;;;2106013;28;19963;-43
2022/01/12 00:20:23;;;;;;;;;;;;;;;;;;2106688;28;19998;-44
2022/01/12 00:21:24;;;;;;;;;;;;;;;;;;2104439;28;19920;-43
2022/01/12 00:22:26;;;;;;;;;;;;;;;;;;2100293;28;19958;-44
2022/01/12 00:23:27;;;;;;;;;;;;;;;;;;2098298;28;20396;-44
2022/01/12 00:24:40;;;;;;;;;;;;;;;;;;2102661;28;20534;-43
2022/01/12 00:25:57;;;;;;;;;;;;;;;;;;2106702;28;20383;-43
2022/01/12 00:33:31;;;;;;;;;;;;;;;;;;2110224;28;20026;-44
2022/01/12 00:34:32;;;;;;;;;;;;;;;;;;2115124;28;19950;-44
2022/01/12 00:35:32;;;;;;;;;;;;;;;;;;2112718;28;19920;-43
2022/01/12 00:36:33;;;;;;;;;;;;;;;;;;2101579;28;19942;-43
2022/01/12 00:37:34;;;;;;;;;;;;;;;;;;2098343;28;19920;-43
2022/01/12 00:38:35;;;;;;;;;;;;;;;;;;2103195;28;20351;-44
2022/01/12 00:39:36;;;;;;;;;;;;;;;;;;2106537;28;19924;-44
2022/01/12 00:40:37;;;;;;;;;;;;;;;;;;2106318;28;19920;-43
2022/01/12 00:41:37;;;;;;;;;;;;;;;;;;2106217;28;19926;-43
2022/01/12 00:42:38;;;;;;;;;;;;;;;;;;2106548;28;19919;-43
2022/01/12 00:43:41;;;;;;;;;;;;;;;;;;2106209;28;19943;-43
2022/01/12 00:44:46;;;;;;;;;;;;;;;;;;2106035;28;20374;-43
2022/01/12 00:45:47;;;;;;;;;;;;;;;;;;2098163;28;20430;-43
2022/01/12 00:46:48;;;;;;;;;;;;;;;;;;2099753;28;20150;-43
2022/01/12 00:47:48;;;;;;;;;;;;;;;;;;2102846;28;20030;-44
2022/01/12 00:48:49;;;;;;;;;;;;;;;;;;2098112;28;19929;-43
2022/01/12 00:49:50;;;;;;;;;;;;;;;;;;2101945;28;19920;-44
2022/01/12 00:50:51;;;;;;;;;;;;;;;;;;2105943;28;19920;-43
2022/01/12 00:51:54;;;;;;;;;;;;;;;;;;2106400;28;20369;-44
2022/01/12 00:52:55;;;;;;;;;;;;;;;;;;2107157;28;20047;-44
2022/01/12 00:53:56;;;;;;;;;;;;;;;;;;2114895;28;19923;-44
2022/01/12 00:54:56;;;;;;;;;;;;;;;;;;2114881;28;19920;-43
2022/01/12 00:55:57;;;;;;;;;;;;;;;;;;2107721;28;19920;-44
2022/01/12 00:56:58;;;;;;;;;;;;;;;;;;2115039;28;20437;-44
2022/01/12 00:57:59;;;;;;;;;;;;;;;;;;2113179;28;19919;-44
2022/01/12 00:58:59;;;;;;;;;;;;;;;;;;2109053;28;19919;-44
2022/01/12 01:00:00;;;;;;;;;;;;;;;;;;2114971;28;20364;-44
2022/01/12 01:01:01;;;;;;;;;;;;;;;;;;2112529;28;19989;-43
2022/01/12 01:02:02;;;;;;;;;;;;;;;;;;2101861;28;19927;-43
2022/01/12 01:03:03;;;;;;;;;;;;;;;;;;2098104;28;20363;-44
2022/01/12 01:04:04;;;;;;;;;;;;;;;;;;2101133;28;19920;-43
2022/01/12 01:05:05;;;;;;;;;;;;;;;;;;2114735;28;20018;-43
2022/01/12 01:06:08;;;;;;;;;;;;;;;;;;2114884;28;20285;-44
2022/01/12 01:07:09;;;;;;;;;;;;;;;;;;2108934;28;20011;-43
2022/01/12 01:08:10;;;;;;;;;;;;;;;;;;2114878;28;20342;-44
2022/01/12 01:09:10;;;;;;;;;;;;;;;;;;2114248;28;19927;-44
2022/01/12 01:10:16;;;;;;;;;;;;;;;;;;2104612;28;19932;-43
2022/01/12 01:11:17;;;;;;;;;;;;;;;;;;2106338;28;20467;-44
2022/01/12 01:12:17;;;;;;;;;;;;;;;;;;2106607;28;19920;-46
2022/01/12 01:13:19;;;;;;;;;;;;;;;;;;2105062;28;20297;-44
2022/01/12 01:14:26;;;;;;;;;;;;;;;;;;2106355;28;19919;-43
2022/01/12 01:15:41;;;;;;;;;;;;;;;;;;2104159;28;21423;-44
2022/01/12 01:16:50;;;;;;;;;;;;;;;;;;2106257;28;20002;-44
2022/01/12 01:25:47;;;;;;;;;;;;;;;;;;2106185;28;20488;-44
2022/01/12 01:26:48;;;;;;;;;;;;;;;;;;2104762;28;20197;-44
2022/01/12 01:27:49;;;;;;;;;;;;;;;;;;2114892;28;20025;-45
2022/01/12 01:28:49;;;;;;;;;;;;;;;;;;2116407;28;19955;-44
2022/01/12 01:29:52;;;;;;;;;;;;;;;;;;2108956;28;20360;-44
2022/01/12 01:30:53;;;;;;;;;;;;;;;;;;2107910;28;19920;-44
2022/01/12 01:31:56;;;;;;;;;;;;;;;;;;2107257;28;20401;-44
2022/01/12 01:33:03;;;;;;;;;;;;;;;;;;2106788;28;19920;-45
2022/01/12 01:34:08;;;;;;;;;;;;;;;;;;2099533;28;19959;-46
2022/01/12 01:35:09;;;;;;;;;;;;;;;;;;2101328;28;20534;-45
2022/01/12 01:36:10;;;;;;;;;;;;;;;;;;2100650;28;19920;-44
2022/01/12 01:37:11;;;;;;;;;;;;;;;;;;2099487;28;19920;-45
2022/01/12 01:38:11;;;;;;;;;;;;;;;;;;2102892;28;20298;-44
2022/01/12 01:39:12;;;;;;;;;;;;;;;;;;2116133;28;19923;-44
2022/01/12 01:40:13;;;;;;;;;;;;;;;;;;2112919;28;19927;-44
2022/01/12 01:41:14;;;;;;;;;;;;;;;;;;2105629;28;19920;-44
2022/01/12 01:42:19;;;;;;;;;;;;;;;;;;2099368;28;20009;-45
2022/01/12 01:43:26;;;;;;;;;;;;;;;;;;2098914;28;20031;-44
2022/01/12 01:53:17;;;;;;;;;;;;;;;;;;2101356;28;20011;-44
2022/01/12 01:53:54;;;;;;;;;;;;;;;;;;2107870;28;20061;-44
2022/01/12 01:54:54;;;;;;;;;;;;;;;;;;2105448;28;19924;-45
2022/01/12 01:55:55;;;;;;;;;;;;;;;;;;2102352;28;19928;-45
2022/01/12 01:56:56;;;;;;;;;;;;;;;;;;2099184;28;19924;-44
2022/01/12 01:57:57;;;;;;;;;;;;;;;;;;2103023;28;19928;-45
2022/01/12 01:58:58;;;;;;;;;;;;;;;;;;2115779;28;19927;-44
2022/01/12 01:59:58;;;;;;;;;;;;;;;;;;2116137;28;19927;-44
2022/01/12 02:00:59;;;;;;;;;;;;;;;;;;2107811;28;19920;-44
2022/01/12 02:02:00;;;;;;;;;;;;;;;;;;2107652;28;19950;-44
2022/01/12 02:03:01;;;;;;;;;;;;;;;;;;2107154;28;19968;-44
2022/01/12 02:04:03;;;;;;;;;;;;;;;;;;2106809;28;19924;-44
2022/01/12 02:05:05;;;;;;;;;;;;;;;;;;2107713;28;19947;-44
2022/01/12 02:06:07;;;;;;;;;;;;;;;;;;2105344;28;20014;-44
2022/01/12 02:07:08;;;;;;;;;;;;;;;;;;2106632;28;19967;-44
2022/01/12 02:08:09;;;;;;;;;;;;;;;;;;2107489;28;19924;-44
2022/01/12 02:09:09;;;;;;;;;;;;;;;;;;2106843;28;19928;-44
2022/01/12 02:10:10;;;;;;;;;;;;;;;;;;2100478;28;20331;-44
2022/01/12 02:11:11;;;;;;;;;;;;;;;;;;2099070;28;19928;-44
2022/01/12 02:12:13;;;;;;;;;;;;;;;;;;2102626;28;19928;-44
2022/01/12 02:13:13;;;;;;;;;;;;;;;;;;2116120;28;20002;-44
2022/01/12 02:14:14;;;;;;;;;;;;;;;;;;2116054;28;20373;-44
2022/01/12 02:15:15;;;;;;;;;;;;;;;;;;2107487;28;20039;-44
2022/01/12 02:16:18;;;;;;;;;;;;;;;;;;2116001;28;19931;-45
2022/01/12 02:17:23;;;;;;;;;;;;;;;;;;2112442;28;20061;-44
2022/01/12 02:18:37;;;;;;;;;;;;;;;;;;2102333;28;20392;-44
2022/01/12 02:19:50;;;;;;;;;;;;;;;;;;2099123;28;20006;-45
2022/01/12 02:35:35;;;;;;;;;;;;;;;;;;2110474;28;20329;-44
2022/01/12 02:36:53;;;;;;;;;;;;;;;;;;2115941;28;19920;-44
2022/01/12 02:40:37;;;;;;;;;;;;;;;;;;2103466;28;20069;-44
2022/01/12 02:41:38;;;;;;;;;;;;;;;;;;2099041;28;20015;-44
2022/01/12 02:42:43;;;;;;;;;;;;;;;;;;2099088;28;20443;-44
2022/01/12 02:50:42;;;;;;;;;;;;;;;;;;2099053;28;20003;-44
2022/01/12 02:54:18;;;;;;;;;;;;;;;;;;2108185;28;20006;-44
2022/01/12 02:55:19;;;;;;;;;;;;;;;;;;2098798;28;19928;-44
2022/01/12 02:56:19;;;;;;;;;;;;;;;;;;2098462;28;19928;-44
2022/01/12 02:57:20;;;;;;;;;;;;;;;;;;2102529;28;20379;-44
2022/01/12 02:58:21;;;;;;;;;;;;;;;;;;2098825;28;19927;-44
2022/01/12 02:59:22;;;;;;;;;;;;;;;;;;2100975;28;19920;-45
2022/01/12 03:00:26;;;;;;;;;;;;;;;;;;2104590;28;20510;-43
2022/01/12 03:01:53;;;;;;;;;;;;;;;;;;2098915;28;20359;-44
2022/01/12 03:03:01;;;;;;;;;;;;;;;;;;2104151;28;20512;-49
2022/01/12 03:04:04;;;;;;;;;;;;;;;;;;2107165;28;19920;-48
2022/01/12 03:06:23;;;;;;;;;;;;;;;;;;2106810;28;20053;-48
2022/01/12 03:07:24;;;;;;;;;;;;;;;;;;2107224;28;19991;-49
2022/01/12 03:08:26;;;;;;;;;;;;;;;;;;2106078;28;19921;-47
2022/01/12 03:09:26;;;;;;;;;;;;;;;;;;2107178;28;20360;-49
2022/01/12 03:10:27;;;;;;;;;;;;;;;;;;2107233;28;19920;-48
2022/01/12 03:11:28;;;;;;;;;;;;;;;;;;2105008;28;19920;-48
2022/01/12 03:12:29;;;;;;;;;;;;;;;;;;2107120;28;20220;-47
2022/01/12 03:13:30;;;;;;;;;;;;;;;;;;2106449;28;19920;-47
2022/01/12 03:14:31;;;;;;;;;;;;;;;;;;2112322;28;19928;-47
2022/01/12 03:15:39;;;;;;;;;;;;;;;;;;2115537;28;19920;-48
2022/01/12 03:16:41;;;;;;;;;;;;;;;;;;2110048;28;19942;-48
2022/01/12 03:17:42;;;;;;;;;;;;;;;;;;2105952;28;20018;-48
2022/01/12 03:18:43;;;;;;;;;;;;;;;;;;2107029;28;19920;-47
2022/01/12 03:19:44;;;;;;;;;;;;;;;;;;2107388;28;19966;-48
2022/01/12 03:20:45;;;;;;;;;;;;;;;;;;2098707;28;20439;-48
2022/01/12 03:21:46;;;;;;;;;;;;;;;;;;2098571;28;19928;-48
2022/01/12 03:22:47;;;;;;;;;;;;;;;;;;2104758;28;19920;-49
2022/01/12 03:23:48;;;;;;;;;;;;;;;;;;2107184;28;19927;-49
2022/01/12 03:24:48;;;;;;;;;;;;;;;;;;2106506;28;20434;-47
2022/01/12 03:25:49;;;;;;;;;;;;;;;;;;2107355;28;19919;-48
2022/01/12 03:26:50;;;;;;;;;;;;;;;;;;2106861;28;19983;-47
2022/01/12 03:27:56;;;;;;;;;;;;;;;;;;2107365;28;19927;-49
2022/01/12 03:28:57;;;;;;;;;;;;;;;;;;2106884;28;19942;-49
2022/01/12 03:29:58;;;;;;;;;;;;;;;;;;2107158;28;20005;-48
2022/01/12 03:31:06;;;;;;;;;;;;;;;;;;2106031;28;20345;-48
2022/01/12 03:32:09;;;;;;;;;;;;;;;;;;2098766;28;19920;-47
2022/01/12 03:33:18;;;;;;;;;;;;;;;;;;2098705;28;19921;-47
2022/01/12 03:34:25;;;;;;;;;;;;;;;;;;2109870;28;19919;-48
2022/01/12 04:05:11;;;;;;;;;;;;;;;;;;2100624;28;19948;-47
2022/01/12 04:08:51;;;;;;;;;;;;;;;;;;2106743;28;20480;-47
2022/01/12 04:09:52;;;;;;;;;;;;;;;;;;2106707;28;20009;-47
2022/01/12 04:10:52;;;;;;;;;;;;;;;;;;2102590;28;19927;-48
2022/01/12 04:11:53;;;;;;;;;;;;;;;;;;2098316;28;19920;-48
2022/01/12 04:12:55;;;;;;;;;;;;;;;;;;2098839;28;19967;-48
2022/01/12 04:13:56;;;;;;;;;;;;;;;;;;2105951;28;20479;-48
2022/01/12 04:14:57;;;;;;;;;;;;;;;;;;2106794;28;19973;-48
2022/01/12 04:15:58;;;;;;;;;;;;;;;;;;2105789;28;19932;-47
2022/01/12 04:16:58;;;;;;;;;;;;;;;;;;2101122;28;20358;-48
2022/01/12 04:17:59;;;;;;;;;;;;;;;;;;2098340;28;20332;-48
2022/01/12 04:19:00;;;;;;;;;;;;;;;;;;2103620;28;19927;-48
2022/01/12 04:20:02;;;;;;;;;;;;;;;;;;2099531;28;19969;-48
2022/01/12 04:21:06;;;;;;;;;;;;;;;;;;2098280;28;20007;-48
2022/01/12 04:23:16;;;;;;;;;;;;;;;;;;2101749;28;20072;-47
2022/01/12 04:23:28;;;;;;;;;;;;;;;;;;2098255;28;20434;-47
2022/01/12 04:24:29;;;;;;;;;;;;;;;;;;2101588;28;19973;-48
2022/01/12 04:25:30;;;;;;;;;;;;;;;;;;2105247;28;20298;-50
2022/01/12 04:26:31;;;;;;;;;;;;;;;;;;2106585;28;19989;-48
2022/01/12 04:27:32;;;;;;;;;;;;;;;;;;2104274;28;19920;-48
2022/01/12 04:28:33;;;;;;;;;;;;;;;;;;2105667;28;19920;-48
2022/01/12 04:29:33;;;;;;;;;;;;;;;;;;2106865;28;20288;-48
2022/01/12 04:30:34;;;;;;;;;;;;;;;;;;2103430;28;19924;-48
2022/01/12 04:31:35;;;;;;;;;;;;;;;;;;2098174;28;20418;-48
2022/01/12 04:32:41;;;;;;;;;;;;;;;;;;2098178;28;19933;-48
2022/01/12 04:33:42;;;;;;;;;;;;;;;;;;2102089;28;19973;-48
2022/01/12 04:34:42;;;;;;;;;;;;;;;;;;2098255;28;19924;-51
2022/01/12 04:35:47;;;;;;;;;;;;;;;;;;2098490;28;19927;-48
2022/01/12 04:36:48;;;;;;;;;;;;;;;;;;2100859;28;20014;-48
2022/01/12 04:37:48;;;;;;;;;;;;;;;;;;2098369;28;19920;-48
2022/01/12 04:38:49;;;;;;;;;;;;;;;;;;2100486;28;19963;-50
2022/01/12 04:39:50;;;;;;;;;;;;;;;;;;2106259;28;20014;-51
2022/01/12 04:40:51;;;;;;;;;;;;;;;;;;2106376;28;19920;-48
2022/01/12 04:41:52;;;;;;;;;;;;;;;;;;2108621;28;19972;-48
2022/01/12 04:42:53;;;;;;;;;;;;;;;;;;2106707;28;19927;-48
2022/01/12 04:43:56;;;;;;;;;;;;;;;;;;2106447;28;20348;-49
2022/01/12 04:45:03;;;;;;;;;;;;;;;;;;2105489;28;19920;-49
2022/01/12 04:46:22;;;;;;;;;;;;;;;;;;2106528;28;20011;-51
2022/01/12 04:47:40;;;;;;;;;;;;;;;;;;2104441;28;19920;-49
2022/01/12 04:48:52;;;;;;;;;;;;;;;;;;2106492;28;20486;-51
2022/01/12 04:49:55;;;;;;;;;;;;;;;;;;2105810;28;20010;-48
2022/01/12 04:50:56;;;;;;;;;;;;;;;;;;2111305;28;20422;-48
2022/01/12 04:51:57;;;;;;;;;;;;;;;;;;2114913;28;19931;-50
2022/01/12 04:52:58;;;;;;;;;;;;;;;;;;2107504;28;20415;-48
2022/01/12 04:53:58;;;;;;;;;;;;;;;;;;2114155;28;19919;-48
2022/01/12 04:54:59;;;;;;;;;;;;;;;;;;2114339;28;19926;-48
2022/01/12 04:56:00;;;;;;;;;;;;;;;;;;2104122;28;20258;-48
2022/01/12 04:57:01;;;;;;;;;;;;;;;;;;2106413;28;19924;-48
2022/01/12 04:58:02;;;;;;;;;;;;;;;;;;2106549;28;19927;-50
2022/01/12 04:59:02;;;;;;;;;;;;;;;;;;2106716;28;19928;-49
2022/01/12 05:00:07;;;;;;;;;;;;;;;;;;2098086;28;20019;-48
2022/01/12 05:01:10;;;;;;;;;;;;;;;;;;2098873;28;20369;-50
2022/01/12 05:06:24;;;;;;;;;;;;;;;;;;2106329;28;19920;-47
2022/01/12 05:06:38;;;;;;;;;;;;;;;;;;2097980;28;20011;-47
2022/01/12 05:07:45;;;;;;;;;;;;;;;;;;2101810;28;20012;-48
2022/01/12 05:09:03;;;;;;;;;;;;;;;;;;2098185;28;19959;-49
2022/01/12 05:12:57;;;;;;;;;;;;;;;;;;2072703;28;20004;-48
2022/01/12 05:13:58;;;;;;;;;;;;;;;;;;2084055;28;19924;-48
2022/01/12 05:15:07;;;;;;;;;;;;;;;;;;2106331;28;19920;-49
2022/01/12 05:16:10;;;;;;;;;;;;;;;;;;2105891;28;20420;-48
2022/01/12 05:17:11;;;;;;;;;;;;;;;;;;2098014;28;19921;-48
2022/01/12 05:18:11;;;;;;;;;;;;;;;;;;2099332;28;19920;-48
2022/01/12 05:19:12;;;;;;;;;;;;;;;;;;2111432;28;19927;-48
2022/01/12 05:20:13;;;;;;;;;;;;;;;;;;2114729;28;19931;-49
2022/01/12 05:21:14;;;;;;;;;;;;;;;;;;2111351;28;19923;-50
2022/01/12 05:22:15;;;;;;;;;;;;;;;;;;2105217;28;19973;-48
2022/01/12 05:23:16;;;;;;;;;;;;;;;;;;2106329;28;19973;-47
2022/01/12 05:24:16;;;;;;;;;;;;;;;;;;2104828;28;20366;-51
2022/01/12 05:25:17;;;;;;;;;;;;;;;;;;2114572;28;19964;-48
2022/01/12 05:26:18;;;;;;;;;;;;;;;;;;2114613;28;20388;-48
2022/01/12 05:27:19;;;;;;;;;;;;;;;;;;2105139;28;19927;-48
2022/01/12 05:28:20;;;;;;;;;;;;;;;;;;2097912;28;19955;-48
2022/01/12 05:29:21;;;;;;;;;;;;;;;;;;2097880;28;19921;-50
2022/01/12 05:30:22;;;;;;;;;;;;;;;;;;2108672;28;19927;-49
2022/01/12 05:31:24;;;;;;;;;;;;;;;;;;2114670;28;20364;-48
2022/01/12 05:32:26;;;;;;;;;;;;;;;;;;2111441;28;19955;-51
2022/01/12 05:33:27;;;;;;;;;;;;;;;;;;2111313;28;19992;-49
2022/01/12 05:34:28;;;;;;;;;;;;;;;;;;2114813;28;20314;-51
2022/01/12 05:35:32;;;;;;;;;;;;;;;;;;2109632;28;20324;-48
2022/01/12 05:36:33;;;;;;;;;;;;;;;;;;2105268;28;19971;-50
2022/01/12 05:37:34;;;;;;;;;;;;;;;;;;2106165;28;19974;-48
2022/01/12 05:38:35;;;;;;;;;;;;;;;;;;2104473;28;20361;-52
2022/01/12 05:39:37;;;;;;;;;;;;;;;;;;2097925;28;19970;-49
2022/01/12 05:40:58;;;;;;;;;;;;;;;;;;2099880;28;20015;-49
2022/01/12 05:41:59;;;;;;;;;;;;;;;;;;2112338;28;19981;-49
2022/01/12 05:43:00;;;;;;;;;;;;;;;;;;2114785;28;19920;-49
2022/01/12 05:44:05;;;;;;;;;;;;;;;;;;2109137;28;19959;-49
2022/01/12 05:45:06;;;;;;;;;;;;;;;;;;2105512;28;19924;-51
2022/01/12 05:46:10;;;;;;;;;;;;;;;;;;2106199;28;20385;-50
2022/01/12 05:47:30;;;;;;;;;;;;;;;;;;2106767;28;20278;-48
2022/01/12 05:49:50;;;;;;;;;;;;;;;;;;2108870;28;19920;-48
2022/01/12 05:50:52;;;;;;;;;;;;;;;;;;2097866;28;19955;-49
2022/01/12 05:51:53;;;;;;;;;;;;;;;;;;2103294;28;19926;-49
2022/01/12 05:52:54;;;;;;;;;;;;;;;;;;2102716;28;20050;-51
2022/01/12 05:53:54;;;;;;;;;;;;;;;;;;2106294;28;19977;-50
2022/01/12 05:54:55;;;;;;;;;;;;;;;;;;2105952;28;19998;-49
2022/01/12 05:55:56;;;;;;;;;;;;;;;;;;2110151;28;20284;-50
2022/01/12 05:56:57;;;;;;;;;;;;;;;;;;2114580;28;20278;-50
2022/01/12 05:57:57;;;;;;;;;;;;;;;;;;2112159;28;19920;-49
2022/01/12 05:58:58;;;;;;;;;;;;;;;;;;2105757;28;19927;-50
2022/01/12 05:59:59;;;;;;;;;;;;;;;;;;2106169;28;19920;-48
2022/01/12 06:01:00;;;;;;;;;;;;;;;;;;2103261;28;19927;-45
2022/01/12 06:02:02;;;;;;;;;;;;;;;;;;2113906;28;19943;-45
2022/01/12 06:03:03;;;;;;;;;;;;;;;;;;2114666;28;19926;-44
2022/01/12 06:04:04;;;;;;;;;;;;;;;;;;2107145;28;19973;-45
2022/01/12 06:05:05;;;;;;;;;;;;;;;;;;2114527;28;19920;-45
2022/01/12 06:06:06;;;;;;;;;;;;;;;;;;2114459;28;19927;-45
2022/01/12 06:07:07;;;;;;;;;;;;;;;;;;2103924;28;20534;-44
2022/01/12 06:08:07;;;;;;;;;;;;;;;;;;2106061;28;19920;-45
2022/01/12 06:09:08;;;;;;;;;;;;;;;;;;2105428;28;19931;-44
2022/01/12 06:10:09;;;;;;;;;;;;;;;;;;2105515;28;19966;-45
2022/01/12 06:11:10;;;;;;;;;;;;;;;;;;2106166;28;19934;-49
2022/01/12 06:12:11;;;;;;;;;;;;;;;;;;2103893;28;19920;-50
2022/01/12 06:13:12;;;;;;;;;;;;;;;;;;2099941;28;19920;-49
2022/01/12 06:14:18;;;;;;;;;;;;;;;;;;2097876;28;20335;-51
2022/01/12 06:15:18;;;;;;;;;;;;;;;;;;2104566;28;20054;-50
2022/01/12 06:16:19;;;;;;;;;;;;;;;;;;2107310;28;19920;-49
2022/01/12 06:17:22;;;;;;;;;;;;;;;;;;2107638;28;19927;-48
2022/01/12 06:18:23;;;;;;;;;;;;;;;;;;2108189;28;19972;-48
2022/01/12 06:19:24;;;;;;;;;;;;;;;;;;2115868;28;19964;-49
2022/01/12 06:20:25;;;;;;;;;;;;;;;;;;2114592;28;19920;-51
2022/01/12 06:21:29;;;;;;;;;;;;;;;;;;2110091;28;19920;-49
2022/01/12 06:22:29;;;;;;;;;;;;;;;;;;2115948;28;19942;-49
2022/01/12 06:23:30;;;;;;;;;;;;;;;;;;2110488;28;19920;-50
2022/01/12 06:24:31;;;;;;;;;;;;;;;;;;2101311;28;19920;-49
2022/01/12 06:25:32;;;;;;;;;;;;;;;;;;2099154;28;19920;-53
2022/01/12 06:26:33;;;;;;;;;;;;;;;;;;2101425;28;19920;-49
2022/01/12 06:27:34;;;;;;;;;;;;;;;;;;2100031;28;20190;-48
2022/01/12 06:28:41;;;;;;;;;;;;;;;;;;2099160;28;19966;-48
2022/01/12 06:29:51;;;;;;;;;;;;;;;;;;2105537;28;20018;-49
2022/01/12 06:31:10;;;;;;;;;;;;;;;;;;2099115;28;19959;-47
2022/01/12 06:32:11;;;;;;;;;;;;;;;;;;2100370;28;20003;-44
2022/01/12 06:33:12;;;;;;;;;;;;;;;;;;2115730;28;19927;-43
2022/01/12 06:34:13;;;;;;;;;;;;;;;;;;2115941;28;19923;-44
2022/01/12 06:35:13;;;;;;;;;;;;;;;;;;2108258;28;20376;-44
2022/01/12 06:36:14;;;;;;;;;;;;;;;;;;2107312;28;20440;-44
2022/01/12 06:37:15;;;;;;;;;;;;;;;;;;2107523;28;19920;-44
2022/01/12 06:38:16;;;;;;;;;;;;;;;;;;2102222;28;20357;-44
2022/01/12 06:39:17;;;;;;;;;;;;;;;;;;2099055;28;19924;-43
2022/01/12 06:40:18;;;;;;;;;;;;;;;;;;2102030;28;19928;-43
2022/01/12 06:41:19;;;;;;;;;;;;;;;;;;2109700;28;19920;-43
2022/01/12 06:42:19;;;;;;;;;;;;;;;;;;2115719;28;19920;-44
2022/01/12 06:43:20;;;;;;;;;;;;;;;;;;2112185;28;19920;-45
2022/01/12 06:44:21;;;;;;;;;;;;;;;;;;2102817;28;19920;-43
2022/01/12 06:45:22;;;;;;;;;;;;;;;;;;2098862;28;19920;-44
2022/01/12 06:46:26;;;;;;;;;;;;;;;;;;2101486;28;19927;-44
2022/01/12 06:47:27;;;;;;;;;;;;;;;;;;2099174;28;19924;-43
2022/01/12 06:48:28;;;;;;;;;;;;;;;;;;2107285;28;19966;-44
2022/01/12 06:49:29;;;;;;;;;;;;;;;;;;2104917;28;20357;-44
2022/01/12 06:50:30;;;;;;;;;;;;;;;;;;2107420;28;19920;-44
2022/01/12 06:51:30;;;;;;;;;;;;;;;;;;2106691;28;19924;-43
2022/01/12 06:52:31;;;;;;;;;;;;;;;;;;2110757;28;19920;-44
2022/01/12 06:53:33;;;;;;;;;;;;;;;;;;2115717;28;20312;-44
2022/01/12 06:54:33;;;;;;;;;;;;;;;;;;2112847;28;19920;-43
2022/01/12 06:55:34;;;;;;;;;;;;;;;;;;2101969;28;19973;-44
2022/01/12 06:56:35;;;;;;;;;;;;;;;;;;2098741;28;19927;-44
2022/01/12 06:57:36;;;;;;;;;;;;;;;;;;2101862;28;19924;-44
2022/01/12 06:58:37;;;;;;;;;;;;;;;;;;2100375;28;20447;-43
2022/01/12 06:59:37;;;;;;;;;;;;;;;;;;2098833;28;19920;-44
2022/01/12 07:00:38;;;;;;;;;;;;;;;;;;2103085;28;19963;-44
2022/01/12 07:01:39;;;;;;;;;;;;;;;;;;2115518;28;19927;-44
2022/01/12 07:02:40;;;;;;;;;;;;;;;;;;2115589;28;20374;-44
2022/01/12 07:03:41;;;;;;;;;;;;;;;;;;2103202;28;19919;-44
2022/01/12 07:04:42;;;;;;;;;;;;;;;;;;2098799;28;19920;-45
2022/01/12 07:05:43;;;;;;;;;;;;;;;;;;2098396;28;19928;-45
2022/01/12 07:06:44;;;;;;;;;;;;;;;;;;2109079;28;19926;-44
2022/01/12 07:07:48;;;;;;;;;;;;;;;;;;2115527;28;20006;-45
2022/01/12 07:08:49;;;;;;;;;;;;;;;;;;2110588;28;19990;-44
2022/01/12 07:09:49;;;;;;;;;;;;;;;;;;2112347;28;19919;-45
2022/01/12 07:10:50;;;;;;;;;;;;;;;;;;2115652;28;20006;-45
2022/01/12 07:11:51;;;;;;;;;;;;;;;;;;2110112;28;19988;-45
2022/01/12 07:12:52;;;;;;;;;;;;;;;;;;2106956;28;19973;-44
2022/01/12 07:13:53;;;;;;;;;;;;;;;;;;2107211;28;19920;-45
2022/01/12 07:14:54;;;;;;;;;;;;;;;;;;2106537;28;19973;-44
2022/01/12 07:15:54;;;;;;;;;;;;;;;;;;2115514;28;19927;-45
2022/01/12 07:16:55;;;;;;;;;;;;;;;;;;2115410;28;19926;-44
2022/01/12 07:17:56;;;;;;;;;;;;;;;;;;2102650;28;19920;-44
2022/01/12 07:18:59;;;;;;;;;;;;;;;;;;2098642;28;19924;-44
2022/01/12 07:20:00;;;;;;;;;;;;;;;;;;2098369;28;20050;-44
2022/01/12 07:21:01;;;;;;;;;;;;;;;;;;2105474;28;19920;-44
2022/01/12 07:22:01;;;;;;;;;;;;;;;;;;2107158;28;19920;-44
2022/01/12 07:23:02;;;;;;;;;;;;;;;;;;2104824;28;20406;-44
2022/01/12 07:24:03;;;;;;;;;;;;;;;;;;2112917;28;19973;-44
2022/01/12 07:25:04;;;;;;;;;;;;;;;;;;2115415;28;19919;-46
2022/01/12 07:26:05;;;;;;;;;;;;;;;;;;2108935;28;19972;-44
2022/01/12 07:27:07;;;;;;;;;;;;;;;;;;2106876;28;20396;-44
2022/01/12 07:28:08;;;;;;;;;;;;;;;;;;2106902;28;19958;-44
2022/01/12 07:29:11;;;;;;;;;;;;;;;;;;2105914;28;19926;-44
2022/01/12 07:30:12;;;;;;;;;;;;;;;;;;2107009;28;19920;-44
2022/01/12 07:31:12;;;;;;;;;;;;;;;;;;2106070;28;20384;-44
2022/01/12 07:32:13;;;;;;;;;;;;;;;;;;2102353;28;20351;-45
2022/01/12 07:33:14;;;;;;;;;;;;;;;;;;2098742;28;19922;-44
2022/01/12 07:34:15;;;;;;;;;;;;;;;;;;2100180;28;19930;-43
2022/01/12 07:35:16;;;;;;;;;;;;;;;;;;2103932;28;19920;-43
2022/01/12 07:36:16;;;;;;;;;;;;;;;;;;2098610;28;20318;-44
2022/01/12 07:37:17;;;;;;;;;;;;;;;;;;2102508;28;19920;-43
2022/01/12 07:38:18;;;;;;;;;;;;;;;;;;2106330;28;19920;-43
2022/01/12 07:39:19;;;;;;;;;;;;;;;;;;2106870;28;19920;-44
2022/01/12 07:40:20;;;;;;;;;;;;;;;;;;2104607;28;19920;-44
2022/01/12 07:41:21;;;;;;;;;;;;;;;;;;2098511;28;19943;-44
2022/01/12 07:42:22;;;;;;;;;;;;;;;;;;2098558;28;19928;-44
2022/01/12 07:43:23;;;;;;;;;;;;;;;;;;2106417;28;20011;-44
2022/01/12 07:44:24;;;;;;;;;;;;;;;;;;2104186;28;20334;-44
2022/01/12 07:45:25;;;;;;;;;;;;;;;;;;2106598;28;19973;-44
2022/01/12 07:46:26;;;;;;;;;;;;;;;;;;2105115;28;19920;-44
2022/01/12 07:47:27;;;;;;;;;;;;;;;;;;2106865;28;20293;-44
2022/01/12 07:48:28;;;;;;;;;;;;;;;;;;2104737;28;19927;-44
2022/01/12 07:49:28;;;;;;;;;;;;;;;;;;2101011;28;19927;-44
2022/01/12 07:50:29;;;;;;;;;;;;;;;;;;2098520;28;19921;-44
2022/01/12 07:51:30;;;;;;;;;;;;;;;;;;2100689;28;19923;-44
2022/01/12 07:52:31;;;;;;;;;;;;;;;;;;2099522;28;19920;-44
2022/01/12 07:53:32;;;;;;;;;;;;;;;;;;2098585;28;19926;-45
2022/01/12 07:54:33;;;;;;;;;;;;;;;;;;2104906;28;20373;-44
2022/01/12 07:55:34;;;;;;;;;;;;;;;;;;2115218;28;19923;-45
2022/01/12 07:56:35;;;;;;;;;;;;;;;;;;2115449;28;19919;-49
2022/01/12 07:57:36;;;;;;;;;;;;;;;;;;2109712;28;20311;-45
2022/01/12 07:58:36;;;;;;;;;;;;;;;;;;2115348;28;20280;-45
2022/01/12 07:59:37;;;;;;;;;;;;;;;;;;2112209;28;20320;-45
2022/01/12 08:00:38;;;;;;;;;;;;;;;;;;2102298;28;19920;-44
2022/01/12 08:01:39;;;;;;;;;;;;;;;;;;2098586;28;19921;-45
2022/01/12 08:02:40;;;;;;;;;;;;;;;;;;2099342;28;19927;-44
2022/01/12 08:03:41;;;;;;;;;;;;;;;;;;2100746;28;20392;-44
2022/01/12 08:04:42;;;;;;;;;;;;;;;;;;2098379;28;19928;-44
2022/01/12 08:05:44;;;;;;;;;;;;;;;;;;2102345;28;19924;-44
2022/01/12 08:06:45;;;;;;;;;;;;;;;;;;2099133;28;19920;-44
2022/01/12 08:07:47;;;;;;;;;;;;;;;;;;2098424;28;20330;-43
2022/01/12 08:08:47;;;;;;;;;;;;;;;;;;2103828;28;19924;-44
2022/01/12 08:09:48;;;;;;;;;;;;;;;;;;2115324;28;19996;-44
2022/01/12 08:10:49;;;;;;;;;;;;;;;;;;2114441;28;19974;-43
2022/01/12 08:11:50;;;;;;;;;;;;;;;;;;2102181;28;19931;-44
2022/01/12 08:12:51;;;;;;;;;;;;;;;;;;2098282;28;20062;-44
2022/01/12 08:13:52;;;;;;;;;;;;;;;;;;2098545;28;19969;-44
2022/01/12 08:14:53;;;;;;;;;;;;;;;;;;2100084;28;19960;-44
2022/01/12 08:15:54;;;;;;;;;;;;;;;;;;2098337;28;19921;-44
2022/01/12 08:16:55;;;;;;;;;;;;;;;;;;2101702;28;20395;-44
2022/01/12 08:18:01;;;;;;;;;;;;;;;;;;2115179;28;20308;-45
2022/01/12 08:19:02;;;;;;;;;;;;;;;;;;2115233;28;19920;-44
2022/01/12 08:20:02;;;;;;;;;;;;;;;;;;2108523;28;20438;-45
2022/01/12 08:21:06;;;;;;;;;;;;;;;;;;2115026;28;19949;-44
2022/01/12 08:22:06;;;;;;;;;;;;;;;;;;2111053;28;19998;-46
2022/01/12 08:23:08;;;;;;;;;;;;;;;;;;2105218;28;19970;-44
2022/01/12 08:24:09;;;;;;;;;;;;;;;;;;2106814;28;20015;-44
2022/01/12 08:25:30;;;;;;;;;;;;;;;;;;2103329;28;19924;-44
2022/01/12 08:26:31;;;;;;;;;;;;;;;;;;2098171;28;20009;-45
2022/01/12 08:27:32;;;;;;;;;;;;;;;;;;2098283;28;19944;-44
2022/01/12 08:28:33;;;;;;;;;;;;;;;;;;2104648;28;19973;-44
2022/01/12 08:29:34;;;;;;;;;;;;;;;;;;2106522;28;19920;-44
2022/01/12 08:30:35;;;;;;;;;;;;;;;;;;2104507;28;19956;-43
2022/01/12 08:31:35;;;;;;;;;;;;;;;;;;2110622;28;19920;-44
2022/01/12 08:32:36;;;;;;;;;;;;;;;;;;2115004;28;20387;-43
2022/01/12 08:33:37;;;;;;;;;;;;;;;;;;2111779;28;20285;-44
2022/01/12 08:34:39;;;;;;;;;;;;;;;;;;2105572;28;20368;-44